Time;durP1;ratioP1;P1;durP2;ratioP2;P2;SDS_P1;SDS_P2;PMS_P1;PMS_P2;Temp;Humidity;BMP_temperature;BMP_pressure;BME280_temperature;BME280_humidity;BME280_pressure;Samples;Min_cycle;Max_cycle;Signal;HPM_P1;HPM_P2
2023/04/24 00:01:00;;;;;;;26.20;10.70;;;;;;;-128.00;-1.00;-1.00;18881;295;7505214;-36
2023/04/24 00:03:27;;;;;;;22.30;11.00;;;;;;;-128.00;-1.00;-1.00;18484;334;7504848;-36
2023/04/24 00:05:54;;;;;;;10.90;7.90;;;;;;;-128.00;-1.00;-1.00;19065;296;7504559;-36
2023/04/24 00:08:22;;;;;;;13.50;8.20;;;;;;;-128.00;-1.00;-1.00;18887;294;7504655;-32
2023/04/24 00:10:47;;;;;;;13.50;8.00;;;;;;;-128.00;-1.00;-1.00;18483;294;7504323;-35
2023/04/24 00:13:14;;;;;;;15.10;8.40;;;;;;;-128.00;-1.00;-1.00;18909;294;7505166;-31
2023/04/24 00:15:40;;;;;;;14.90;6.40;;;;;;;-128.00;-1.00;-1.00;18890;293;7505658;-36
2023/04/24 00:18:06;;;;;;;7.30;6.50;;;;;;;-128.00;-1.00;-1.00;18874;294;7505330;-34
2023/04/24 00:20:33;;;;;;;7.20;5.60;;;;;;;-128.00;-1.00;-1.00;18874;294;7504091;-35
2023/04/24 00:22:59;;;;;;;6.20;4.10;;;;;;;-128.00;-1.00;-1.00;18512;286;7504216;-30
2023/04/24 00:25:24;;;;;;;15.00;4.60;;;;;;;-128.00;-1.00;-1.00;18479;305;7504199;-34
2023/04/24 00:27:50;;;;;;;11.60;5.00;;;;;;;-128.00;-1.00;-1.00;18893;317;7504352;-35
2023/04/24 00:30:17;;;;;;;6.30;4.80;;;;;;;-128.00;-1.00;-1.00;18893;294;7504343;-35
2023/04/24 00:32:43;;;;;;;6.70;4.50;;;;;;;-128.00;-1.00;-1.00;18899;293;7505015;-32
2023/04/24 00:35:10;;;;;;;6.20;5.30;;;;;;;-128.00;-1.00;-1.00;18888;294;7505300;-35
2023/04/24 00:37:35;;;;;;;5.80;4.20;;;;;;;-128.00;-1.00;-1.00;18490;294;7506041;-35
2023/04/24 00:40:02;;;;;;;5.70;4.10;;;;;;;-128.00;-1.00;-1.00;18493;294;7505734;-31
2023/04/24 00:42:28;;;;;;;13.20;4.20;;;;;;;-128.00;-1.00;-1.00;18497;294;7504838;-31
2023/04/24 00:44:54;;;;;;;13.00;4.50;;;;;;;-128.00;-1.00;-1.00;18492;294;7504601;-31
2023/04/24 00:47:21;;;;;;;5.60;3.90;;;;;;;-128.00;-1.00;-1.00;18488;294;7504203;-34
2023/04/24 00:49:48;;;;;;;12.50;4.50;;;;;;;-128.00;-1.00;-1.00;18454;294;7504643;-34
2023/04/24 00:52:17;;;;;;;7.50;4.10;;;;;;;-128.00;-1.00;-1.00;18488;294;7505583;-31
2023/04/24 00:54:45;;;;;;;4.90;4.30;;;;;;;-128.00;-1.00;-1.00;18517;294;7504669;-30
2023/04/24 00:57:10;;;;;;;5.20;3.80;;;;;;;-128.00;-1.00;-1.00;18485;294;7504468;-35
2023/04/24 00:59:37;;;;;;;6.20;3.90;;;;;;;-128.00;-1.00;-1.00;18869;338;7504639;-35
2023/04/24 01:02:03;;;;;;;5.00;3.90;;;;;;;-128.00;-1.00;-1.00;18908;294;7504571;-31
2023/04/24 01:04:29;;;;;;;5.90;3.80;;;;;;;-128.00;-1.00;-1.00;18944;338;7504703;-31
2023/04/24 01:06:55;;;;;;;7.50;4.50;;;;;;;-128.00;-1.00;-1.00;18877;294;7505160;-30
2023/04/24 01:09:23;;;;;;;3.90;3.20;;;;;;;-128.00;-1.00;-1.00;18902;294;7505116;-30
2023/04/24 01:11:48;;;;;;;4.30;2.80;;;;;;;-128.00;-1.00;-1.00;18516;294;7505444;-30
2023/04/24 01:14:14;;;;;;;4.50;3.10;;;;;;;-128.00;-1.00;-1.00;18889;287;7504311;-31
2023/04/24 01:16:41;;;;;;;4.40;3.70;;;;;;;-128.00;-1.00;-1.00;18901;287;7505187;-34
2023/04/24 01:19:07;;;;;;;4.70;3.00;;;;;;;-128.00;-1.00;-1.00;18499;294;7504601;-30
2023/04/24 01:21:36;;;;;;;3.70;2.90;;;;;;;-128.00;-1.00;-1.00;18490;294;7505081;-30
2023/04/24 01:24:03;;;;;;;3.20;2.90;;;;;;;-128.00;-1.00;-1.00;18477;294;7505937;-34
2023/04/24 01:26:28;;;;;;;3.00;2.20;;;;;;;-128.00;-1.00;-1.00;18493;293;7504740;-34
2023/04/24 01:28:54;;;;;;;3.40;2.70;;;;;;;-128.00;-1.00;-1.00;18910;334;7504873;-30
2023/04/24 01:31:20;;;;;;;3.50;2.90;;;;;;;-128.00;-1.00;-1.00;18875;294;7505165;-30
2023/04/24 01:33:47;;;;;;;5.00;3.30;;;;;;;-128.00;-1.00;-1.00;18895;346;7505094;-31
2023/04/24 01:36:13;;;;;;;5.40;3.50;;;;;;;-128.00;-1.00;-1.00;18495;306;7504860;-30
2023/04/24 01:38:39;;;;;;;3.50;2.60;;;;;;;-128.00;-1.00;-1.00;18505;294;7505354;-30
2023/04/24 01:41:05;;;;;;;3.80;3.10;;;;;;;-128.00;-1.00;-1.00;18511;295;7504869;-31
2023/04/24 01:43:32;;;;;;;3.40;2.50;;;;;;;-128.00;-1.00;-1.00;18885;294;7504941;-35
2023/04/24 01:45:57;;;;;;;6.00;3.70;;;;;;;-128.00;-1.00;-1.00;18531;294;7504302;-35
2023/04/24 01:48:23;;;;;;;3.70;2.80;;;;;;;-128.00;-1.00;-1.00;18888;295;7505069;-31
2023/04/24 01:50:49;;;;;;;7.20;4.10;;;;;;;-128.00;-1.00;-1.00;18884;306;7505422;-35
2023/04/24 01:53:16;;;;;;;7.60;4.10;;;;;;;-128.00;-1.00;-1.00;18883;287;7505190;-31
2023/04/24 01:55:42;;;;;;;3.20;2.90;;;;;;;-128.00;-1.00;-1.00;18917;295;7504723;-31
2023/04/24 01:58:08;;;;;;;5.70;5.00;;;;;;;-128.00;-1.00;-1.00;18516;309;7506233;-35
2023/04/24 02:00:34;;;;;;;17.90;8.10;;;;;;;-128.00;-1.00;-1.00;18478;294;7504849;-35
2023/04/24 02:03:01;;;;;;;23.50;12.10;;;;;;;-128.00;-1.00;-1.00;18477;347;7505010;-31
2023/04/24 02:05:27;;;;;;;19.70;8.70;;;;;;;-128.00;-1.00;-1.00;18499;317;7504584;-35
2023/04/24 02:07:53;;;;;;;19.20;8.00;;;;;;;-128.00;-1.00;-1.00;18496;294;7506518;-31
2023/04/24 02:10:19;;;;;;;13.90;7.10;;;;;;;-128.00;-1.00;-1.00;18478;294;7504779;-35
2023/04/24 02:12:45;;;;;;;13.50;5.30;;;;;;;-128.00;-1.00;-1.00;18459;294;7504558;-35
2023/04/24 02:15:12;;;;;;;11.40;6.90;;;;;;;-128.00;-1.00;-1.00;18916;294;7504853;-35
2023/04/24 02:17:38;;;;;;;6.40;5.00;;;;;;;-128.00;-1.00;-1.00;18511;294;7505571;-35
2023/04/24 02:20:06;;;;;;;7.80;6.00;;;;;;;-128.00;-1.00;-1.00;18490;294;7505647;-32
2023/04/24 02:22:31;;;;;;;7.30;5.10;;;;;;;-128.00;-1.00;-1.00;18470;289;7504558;-35
2023/04/24 02:24:58;;;;;;;10.20;5.80;;;;;;;-128.00;-1.00;-1.00;18887;294;7504845;-35
2023/04/24 02:27:24;;;;;;;19.30;8.60;;;;;;;-128.00;-1.00;-1.00;18894;294;7504171;-33
2023/04/24 02:29:50;;;;;;;13.90;7.70;;;;;;;-128.00;-1.00;-1.00;18899;295;7506780;-31
2023/04/24 02:32:16;;;;;;;17.60;7.00;;;;;;;-128.00;-1.00;-1.00;18893;346;7504613;-35
2023/04/24 02:34:43;;;;;;;19.10;8.60;;;;;;;-128.00;-1.00;-1.00;18888;336;7506118;-32
2023/04/24 02:37:09;;;;;;;11.90;8.30;;;;;;;-128.00;-1.00;-1.00;18866;287;7505846;-35
2023/04/24 02:39:35;;;;;;;10.70;6.80;;;;;;;-128.00;-1.00;-1.00;18918;298;7504635;-35
2023/04/24 02:42:02;;;;;;;16.00;7.50;;;;;;;-128.00;-1.00;-1.00;18897;294;7504662;-35
2023/04/24 02:44:28;;;;;;;9.80;6.30;;;;;;;-128.00;-1.00;-1.00;18889;294;7504649;-32
2023/04/24 02:46:54;;;;;;;14.00;6.00;;;;;;;-128.00;-1.00;-1.00;18889;293;7504399;-30
2023/04/24 02:49:20;;;;;;;7.30;5.70;;;;;;;-128.00;-1.00;-1.00;18883;295;7506077;-34
2023/04/24 02:51:46;;;;;;;8.50;5.70;;;;;;;-128.00;-1.00;-1.00;18906;294;7506261;-30
2023/04/24 02:54:13;;;;;;;11.70;6.30;;;;;;;-128.00;-1.00;-1.00;18900;294;7504728;-34
2023/04/24 02:56:39;;;;;;;8.20;6.60;;;;;;;-128.00;-1.00;-1.00;18922;294;7505314;-34
2023/04/24 02:59:05;;;;;;;11.20;6.10;;;;;;;-128.00;-1.00;-1.00;18872;294;7504828;-34
2023/04/24 03:01:32;;;;;;;11.50;5.10;;;;;;;-128.00;-1.00;-1.00;18885;329;7504392;-30
2023/04/24 03:03:58;;;;;;;12.00;6.40;;;;;;;-128.00;-1.00;-1.00;18885;294;7505538;-30
2023/04/24 03:06:24;;;;;;;24.60;9.60;;;;;;;-128.00;-1.00;-1.00;18897;294;7504557;-32
2023/04/24 03:08:50;;;;;;;22.90;9.60;;;;;;;-128.00;-1.00;-1.00;18885;294;7505063;-34
2023/04/24 03:11:16;;;;;;;26.20;11.90;;;;;;;-128.00;-1.00;-1.00;18881;294;7507699;-34
2023/04/24 03:13:42;;;;;;;16.50;8.40;;;;;;;-128.00;-1.00;-1.00;18916;287;7504404;-34
2023/04/24 03:16:09;;;;;;;13.30;7.30;;;;;;;-128.00;-1.00;-1.00;18921;287;7504506;-30
2023/04/24 03:18:35;;;;;;;15.60;7.10;;;;;;;-128.00;-1.00;-1.00;18903;298;7504240;-34
2023/04/24 03:21:01;;;;;;;13.10;7.20;;;;;;;-128.00;-1.00;-1.00;18864;302;7504624;-31
2023/04/24 03:23:27;;;;;;;12.70;5.80;;;;;;;-128.00;-1.00;-1.00;18862;305;7504610;-34
2023/04/24 03:25:54;;;;;;;13.80;6.10;;;;;;;-128.00;-1.00;-1.00;18883;294;7505822;-34
2023/04/24 03:28:20;;;;;;;7.90;5.20;;;;;;;-128.00;-1.00;-1.00;18482;294;7505073;-30
2023/04/24 03:30:46;;;;;;;5.00;3.70;;;;;;;-128.00;-1.00;-1.00;18480;294;7504753;-30
2023/04/24 03:33:12;;;;;;;6.50;4.30;;;;;;;-128.00;-1.00;-1.00;18492;346;7504962;-30
2023/04/24 03:35:38;;;;;;;11.50;4.60;;;;;;;-128.00;-1.00;-1.00;18909;294;7505075;-34
2023/04/24 03:38:04;;;;;;;5.50;4.50;;;;;;;-128.00;-1.00;-1.00;18878;297;7504159;-34
2023/04/24 03:40:30;;;;;;;7.70;5.00;;;;;;;-128.00;-1.00;-1.00;18865;295;7504142;-34
2023/04/24 03:42:56;;;;;;;5.20;4.50;;;;;;;-128.00;-1.00;-1.00;18891;346;7504175;-31
2023/04/24 03:45:22;;;;;;;7.10;5.50;;;;;;;-128.00;-1.00;-1.00;18910;346;7504846;-30
2023/04/24 03:47:49;;;;;;;5.90;5.10;;;;;;;-128.00;-1.00;-1.00;18873;287;7504919;-30
2023/04/24 03:50:15;;;;;;;6.90;4.80;;;;;;;-128.00;-1.00;-1.00;18868;334;7504572;-34
2023/04/24 03:52:41;;;;;;;5.50;4.70;;;;;;;-128.00;-1.00;-1.00;18898;306;7505991;-31
2023/04/24 03:55:08;;;;;;;5.70;4.40;;;;;;;-128.00;-1.00;-1.00;18871;294;7504606;-35
2023/04/24 03:57:34;;;;;;;9.10;6.10;;;;;;;-128.00;-1.00;-1.00;18895;318;7505308;-35
2023/04/24 04:00:04;;;;;;;7.20;6.30;;;;;;;-128.00;-1.00;-1.00;18892;294;7507207;-31
2023/04/24 04:02:29;;;;;;;17.80;4.90;;;;;;;-128.00;-1.00;-1.00;18465;302;7504972;-30
2023/04/24 04:04:55;;;;;;;9.90;7.30;;;;;;;-128.00;-1.00;-1.00;18895;294;7504245;-35
2023/04/24 04:07:21;;;;;;;20.00;7.30;;;;;;;-128.00;-1.00;-1.00;18871;294;7504251;-34
2023/04/24 04:09:47;;;;;;;17.90;7.40;;;;;;;-128.00;-1.00;-1.00;18903;294;7504830;-35
2023/04/24 04:12:14;;;;;;;16.40;7.10;;;;;;;-128.00;-1.00;-1.00;18882;294;7505447;-32
2023/04/24 04:14:40;;;;;;;9.30;6.70;;;;;;;-128.00;-1.00;-1.00;18866;294;7505427;-35
2023/04/24 04:17:06;;;;;;;11.80;7.50;;;;;;;-128.00;-1.00;-1.00;18884;295;7504731;-31
2023/04/24 04:19:32;;;;;;;14.10;8.20;;;;;;;-128.00;-1.00;-1.00;18867;294;7505425;-31
2023/04/24 04:21:59;;;;;;;16.00;7.80;;;;;;;-128.00;-1.00;-1.00;18868;305;7504393;-32
2023/04/24 04:24:26;;;;;;;11.10;7.40;;;;;;;-128.00;-1.00;-1.00;18910;294;7505341;-30
2023/04/24 04:26:52;;;;;;;11.10;6.20;;;;;;;-128.00;-1.00;-1.00;18511;346;7504540;-34
2023/04/24 04:29:22;;;;;;;9.60;6.40;;;;;;;-128.00;-1.00;-1.00;18510;294;7504179;-29
2023/04/24 04:31:48;;;;;;;9.20;5.80;;;;;;;-128.00;-1.00;-1.00;18498;294;7505063;-30
2023/04/24 04:34:13;;;;;;;6.00;4.10;;;;;;;-128.00;-1.00;-1.00;18493;334;7504098;-36
2023/04/24 04:36:41;;;;;;;8.10;5.40;;;;;;;-128.00;-1.00;-1.00;18508;294;7504457;-31
2023/04/24 05:19:02;;;;;;;12.20;7.20;;;;;;;-100.06;14.28;19657.95;98206;296;1544098;-33
2023/04/24 05:21:28;;;;;;;12.80;7.30;;;;;;;-128.00;-1.00;-1.00;97387;297;1002874;-36
2023/04/24 05:23:53;;;;;;;7.50;6.50;;;;;;;-128.00;-1.00;-1.00;97848;296;1003745;-33
2023/04/24 05:26:19;;;;;;;6.20;4.40;;;;;;;-128.00;-1.00;-1.00;97852;297;1003838;-30
2023/04/24 05:28:45;;;;;;;6.50;4.80;;;;;;;-128.00;-1.00;-1.00;97860;296;1003756;-32
2023/04/24 05:31:12;;;;;;;9.90;6.20;;;;;;;-128.00;-1.00;-1.00;97811;296;1003227;-28
2023/04/24 05:33:38;;;;;;;15.40;6.40;;;;;;;-128.00;-1.00;-1.00;97819;297;1003191;-34
2023/04/24 05:36:05;;;;;;;6.60;5.20;;;;;;;-128.00;-1.00;-1.00;97853;297;1002607;-33
2023/04/24 05:38:30;;;;;;;7.00;4.40;;;;;;;-128.00;-1.00;-1.00;98050;284;1003388;-30
2023/04/24 05:40:56;;;;;;;8.40;6.60;;;;;;;-128.00;-1.00;-1.00;97873;285;1003068;-34
2023/04/24 05:43:22;;;;;;;10.50;6.20;;;;;;;-128.00;-1.00;-1.00;97840;296;1003865;-34
2023/04/24 05:45:48;;;;;;;6.60;5.50;;;;;;;-128.00;-1.00;-1.00;97911;296;1003252;-33
2023/04/24 05:48:13;;;;;;;7.50;4.70;;;;;;;-128.00;-1.00;-1.00;97887;285;1003182;-30
2023/04/24 05:50:39;;;;;;;10.30;5.80;;;;;;;-128.00;-1.00;-1.00;97812;297;1003288;-33
2023/04/24 05:53:06;;;;;;;7.10;4.10;;;;;;;-128.00;-1.00;-1.00;97802;296;1003200;-29
2023/04/24 05:55:33;;;;;;;9.00;6.00;;;;;;;-128.00;-1.00;-1.00;97881;285;1003743;-30
2023/04/24 05:57:59;;;;;;;10.10;5.90;;;;;;;-128.00;-1.00;-1.00;97840;296;1003177;-36
2023/04/24 06:00:25;;;;;;;7.90;5.10;;;;;;;-128.00;-1.00;-1.00;97889;289;1003219;-35
2023/04/24 06:02:52;;;;;;;6.80;5.30;;;;;;;-128.00;-1.00;-1.00;97788;285;1003907;-35
2023/04/24 06:05:18;;;;;;;6.40;5.10;;;;;;;-128.00;-1.00;-1.00;97873;296;1002950;-29
2023/04/24 06:07:44;;;;;;;7.50;4.80;;;;;;;-128.00;-1.00;-1.00;97909;296;1003308;-31
2023/04/24 06:10:10;;;;;;;7.50;5.40;;;;;;;-128.00;-1.00;-1.00;97902;296;1004626;-29
2023/04/24 06:12:36;;;;;;;7.60;6.60;;;;;;;-128.00;-1.00;-1.00;97861;296;1003513;-31
2023/04/24 06:15:03;;;;;;;6.60;5.70;;;;;;;-128.00;-1.00;-1.00;97877;296;1004353;-31
2023/04/24 06:17:28;;;;;;;11.70;6.30;;;;;;;-128.00;-1.00;-1.00;97876;295;1003542;-31
2023/04/24 06:19:54;;;;;;;7.40;5.00;;;;;;;-128.00;-1.00;-1.00;97839;296;1003641;-32
2023/04/24 06:22:20;;;;;;;6.10;4.20;;;;;;;-128.00;-1.00;-1.00;97897;295;1003305;-32
2023/04/24 06:24:47;;;;;;;14.90;6.60;;;;;;;-128.00;-1.00;-1.00;97798;295;1003238;-30
2023/04/24 06:27:12;;;;;;;16.50;8.50;;;;;;;-128.00;-1.00;-1.00;97791;297;1002933;-34
2023/04/24 06:29:38;;;;;;;11.50;7.60;;;;;;;-128.00;-1.00;-1.00;97840;295;1003016;-34
2023/04/24 06:32:03;;;;;;;6.10;5.30;;;;;;;-128.00;-1.00;-1.00;97890;295;1004996;-34
2023/04/24 06:34:30;;;;;;;8.20;5.70;;;;;;;-128.00;-1.00;-1.00;97869;295;1003161;-34
2023/04/24 06:36:56;;;;;;;6.70;5.70;;;;;;;-128.00;-1.00;-1.00;97577;295;1004269;-33
2023/04/24 06:39:22;;;;;;;7.30;5.60;;;;;;;-128.00;-1.00;-1.00;97963;295;1003257;-34
2023/04/24 06:41:47;;;;;;;7.40;5.10;;;;;;;-128.00;-1.00;-1.00;97102;288;1003053;-30
2023/04/24 06:44:14;;;;;;;7.60;4.40;;;;;;;-128.00;-1.00;-1.00;97818;295;1004745;-34
2023/04/24 06:46:41;;;;;;;8.20;4.70;;;;;;;-128.00;-1.00;-1.00;97875;295;1002721;-29
2023/04/24 06:49:07;;;;;;;14.00;5.00;;;;;;;-128.00;-1.00;-1.00;97796;295;1003095;-30
2023/04/24 06:51:32;;;;;;;8.70;5.10;;;;;;;-128.00;-1.00;-1.00;97793;295;1002899;-32
2023/04/24 06:53:59;;;;;;;7.90;5.70;;;;;;;-128.00;-1.00;-1.00;97839;295;1003755;-32
2023/04/24 06:56:25;;;;;;;8.70;4.30;;;;;;;-128.00;-1.00;-1.00;97727;295;1003713;-29
2023/04/24 06:58:51;;;;;;;8.60;4.70;;;;;;;-128.00;-1.00;-1.00;97869;295;1003373;-32
2023/04/24 07:01:17;;;;;;;6.20;3.70;;;;;;;-128.00;-1.00;-1.00;97899;295;1003407;-31
2023/04/24 07:03:43;;;;;;;8.10;4.50;;;;;;;-128.00;-1.00;-1.00;98035;295;1003459;-30
2023/04/24 07:06:11;;;;;;;6.20;4.20;;;;;;;-128.00;-1.00;-1.00;97890;295;1003335;-31
2023/04/24 07:08:36;;;;;;;5.50;4.20;;;;;;;-128.00;-1.00;-1.00;97913;295;1003268;-34
2023/04/24 07:11:02;;;;;;;7.40;5.30;;;;;;;-128.00;-1.00;-1.00;97914;295;1004637;-30
2023/04/24 07:13:28;;;;;;;5.50;4.00;;;;;;;-128.00;-1.00;-1.00;97773;297;1003454;-34
2023/04/24 07:15:54;;;;;;;6.60;3.50;;;;;;;-128.00;-1.00;-1.00;97873;295;1003176;-35
2023/04/24 07:18:20;;;;;;;9.30;4.20;;;;;;;-128.00;-1.00;-1.00;97819;295;1003076;-35
2023/04/24 07:20:46;;;;;;;6.90;4.50;;;;;;;-128.00;-1.00;-1.00;97976;295;1003396;-34
2023/04/24 07:23:12;;;;;;;8.80;4.60;;;;;;;-128.00;-1.00;-1.00;97926;295;1003871;-34
2023/04/24 07:25:39;;;;;;;7.00;3.50;;;;;;;-128.00;-1.00;-1.00;97873;295;1003330;-31
2023/04/24 07:28:05;;;;;;;6.20;3.50;;;;;;;-128.00;-1.00;-1.00;97846;295;1003425;-32
2023/04/24 07:30:32;;;;;;;6.40;3.00;;;;;;;-128.00;-1.00;-1.00;97745;295;1003010;-30
2023/04/24 07:32:58;;;;;;;4.00;3.30;;;;;;;-128.00;-1.00;-1.00;97840;295;1003003;-35
2023/04/24 07:35:25;;;;;;;4.10;3.50;;;;;;;-128.00;-1.00;-1.00;97839;284;1002923;-36
2023/04/24 07:37:55;;;;;;;6.80;3.80;;;;;;;-128.00;-1.00;-1.00;97856;295;1002807;-35
2023/04/24 07:40:21;;;;;;;3.60;3.10;;;;;;;-128.00;-1.00;-1.00;97800;297;1002838;-32
2023/04/24 07:42:48;;;;;;;3.30;2.70;;;;;;;-128.00;-1.00;-1.00;97842;295;1002741;-33
2023/04/24 07:45:14;;;;;;;4.40;3.00;;;;;;;-128.00;-1.00;-1.00;97848;295;1003212;-32
2023/04/24 07:47:43;;;;;;;4.90;2.90;;;;;;;-128.00;-1.00;-1.00;97816;295;1003230;-34
2023/04/24 07:50:09;;;;;;;3.90;3.20;;;;;;;-128.00;-1.00;-1.00;97915;295;1002732;-31
2023/04/24 07:52:35;;;;;;;3.30;2.80;;;;;;;-128.00;-1.00;-1.00;97777;295;1002694;-35
2023/04/24 07:55:02;;;;;;;4.80;3.00;;;;;;;-128.00;-1.00;-1.00;97930;295;1003797;-34
2023/04/24 07:57:28;;;;;;;6.90;3.30;;;;;;;-128.00;-1.00;-1.00;97906;295;1003695;-30
2023/04/24 07:59:55;;;;;;;4.00;2.70;;;;;;;-128.00;-1.00;-1.00;97792;296;1002968;-29
2023/04/24 08:02:25;;;;;;;3.90;2.40;;;;;;;-128.00;-1.00;-1.00;97865;295;1003110;-35
2023/04/24 08:04:55;;;;;;;5.30;2.30;;;;;;;-128.00;-1.00;-1.00;97935;295;1003434;-36
2023/04/24 08:07:23;;;;;;;2.40;2.20;;;;;;;-128.00;-1.00;-1.00;97897;295;1003203;-30
2023/04/24 08:09:49;;;;;;;6.60;3.70;;;;;;;-128.00;-1.00;-1.00;97830;295;1003615;-29
2023/04/24 08:12:15;;;;;;;3.90;2.80;;;;;;;-128.00;-1.00;-1.00;97856;295;1004468;-31
2023/04/24 08:14:40;;;;;;;4.00;3.00;;;;;;;-128.00;-1.00;-1.00;97857;295;1003718;-36
2023/04/24 08:17:06;;;;;;;3.40;2.30;;;;;;;-128.00;-1.00;-1.00;97851;295;1004224;-34
2023/04/24 08:19:32;;;;;;;4.70;3.40;;;;;;;-128.00;-1.00;-1.00;97811;290;1005227;-29
2023/04/24 08:21:58;;;;;;;7.20;2.80;;;;;;;-128.00;-1.00;-1.00;97834;295;1003174;-30
2023/04/24 08:24:23;;;;;;;3.90;2.80;;;;;;;-128.00;-1.00;-1.00;97806;295;1003367;-31
2023/04/24 08:26:51;;;;;;;2.60;1.70;;;;;;;-128.00;-1.00;-1.00;97954;295;1003131;-33
2023/04/24 08:29:17;;;;;;;2.80;2.20;;;;;;;-128.00;-1.00;-1.00;97862;288;1002924;-29
2023/04/24 08:31:42;;;;;;;3.90;2.90;;;;;;;-128.00;-1.00;-1.00;97832;295;1002826;-30
2023/04/24 08:34:09;;;;;;;4.80;2.70;;;;;;;-128.00;-1.00;-1.00;97791;295;1003014;-31
2023/04/24 08:36:35;;;;;;;23.40;2.70;;;;;;;-128.00;-1.00;-1.00;97783;296;1002886;-35
2023/04/24 08:39:01;;;;;;;3.10;2.80;;;;;;;-128.00;-1.00;-1.00;97838;295;1003734;-37
2023/04/24 08:41:27;;;;;;;2.30;1.70;;;;;;;-128.00;-1.00;-1.00;97799;295;1004863;-31
2023/04/24 08:43:53;;;;;;;4.00;2.00;;;;;;;-128.00;-1.00;-1.00;97756;286;1003904;-34
2023/04/24 08:46:19;;;;;;;3.20;1.80;;;;;;;-128.00;-1.00;-1.00;97838;295;1003330;-31
2023/04/24 08:48:46;;;;;;;3.30;2.40;;;;;;;-128.00;-1.00;-1.00;97976;295;1002210;-31
2023/04/24 08:51:12;;;;;;;4.60;2.40;;;;;;;-128.00;-1.00;-1.00;97877;295;1003561;-35
2023/04/24 08:53:38;;;;;;;3.80;2.30;;;;;;;-128.00;-1.00;-1.00;97944;297;1004057;-32
2023/04/24 08:56:04;;;;;;;3.70;2.80;;;;;;;-128.00;-1.00;-1.00;97822;297;1004379;-32
2023/04/24 08:58:31;;;;;;;4.00;2.10;;;;;;;-128.00;-1.00;-1.00;97825;297;1004046;-33
2023/04/24 09:00:57;;;;;;;3.30;2.40;;;;;;;-128.00;-1.00;-1.00;98033;295;1002936;-35
2023/04/24 09:03:23;;;;;;;3.80;1.90;;;;;;;-128.00;-1.00;-1.00;97926;295;1004781;-33
2023/04/24 09:05:50;;;;;;;3.20;2.60;;;;;;;-128.00;-1.00;-1.00;97802;284;1002748;-31
2023/04/24 09:08:17;;;;;;;2.00;1.90;;;;;;;-128.00;-1.00;-1.00;97913;295;1002277;-35
2023/04/24 09:10:43;;;;;;;4.40;1.90;;;;;;;-128.00;-1.00;-1.00;97851;295;1003897;-35
2023/04/24 09:13:09;;;;;;;5.70;3.10;;;;;;;-128.00;-1.00;-1.00;97862;295;1003510;-31
2023/04/24 09:15:36;;;;;;;2.10;1.90;;;;;;;-128.00;-1.00;-1.00;97902;295;1003455;-31
2023/04/24 09:18:02;;;;;;;1.80;1.70;;;;;;;-128.00;-1.00;-1.00;97908;284;1003272;-31
2023/04/24 09:20:28;;;;;;;4.30;2.80;;;;;;;-128.00;-1.00;-1.00;97870;295;1003942;-31
2023/04/24 09:22:55;;;;;;;2.10;1.50;;;;;;;-128.00;-1.00;-1.00;97905;295;1005276;-31
2023/04/24 09:25:21;;;;;;;5.40;2.70;;;;;;;-128.00;-1.00;-1.00;97847;295;1003190;-37
2023/04/24 09:27:46;;;;;;;2.50;1.70;;;;;;;-128.00;-1.00;-1.00;97908;295;1003417;-32
2023/04/24 09:30:13;;;;;;;3.30;2.60;;;;;;;-128.00;-1.00;-1.00;97670;295;1004337;-31
2023/04/24 09:32:38;;;;;;;2.00;1.60;;;;;;;-128.00;-1.00;-1.00;97816;295;1003465;-31
2023/04/24 09:35:09;;;;;;;3.20;2.00;;;;;;;-128.00;-1.00;-1.00;97782;295;1003518;-35
2023/04/24 09:37:39;;;;;;;2.80;2.40;;;;;;;-128.00;-1.00;-1.00;97515;295;1395087;-38
2023/04/24 09:40:17;;;;;;;5.10;2.90;;;;;;;-128.00;-1.00;-1.00;96333;297;1314033;-32
2023/04/24 09:42:45;;;;;;;3.60;2.10;;;;;;;-128.00;-1.00;-1.00;97505;295;1011345;-31
2023/04/24 09:45:11;;;;;;;5.40;1.90;;;;;;;-128.00;-1.00;-1.00;97729;296;1004248;-35
2023/04/24 09:47:41;;;;;;;4.70;2.30;;;;;;;-128.00;-1.00;-1.00;97692;284;1004272;-35
2023/04/24 09:50:15;;;;;;;5.10;2.20;;;;;;;-128.00;-1.00;-1.00;97271;298;1002954;-32
2023/04/24 09:52:43;;;;;;;3.50;2.00;;;;;;;-128.00;-1.00;-1.00;97807;284;1003789;-36
2023/04/24 09:55:18;;;;;;;4.70;1.60;;;;;;;-128.00;-1.00;-1.00;50003;298;7504260;-33
2023/04/24 09:57:55;;;;;;;2.20;2.00;;;;;;;-128.00;-1.00;-1.00;40171;288;7505980;-37
2023/04/24 10:00:25;;;;;;;1.50;1.40;;;;;;;-128.00;-1.00;-1.00;97944;295;1003275;-36
2023/04/24 10:02:59;;;;;;;3.70;1.90;;;;;;;-128.00;-1.00;-1.00;97892;295;1003158;-31
2023/04/24 10:05:31;;;;;;;3.20;1.80;;;;;;;-128.00;-1.00;-1.00;94936;288;2128620;-28
2023/04/24 10:07:59;;;;;;;2.50;1.90;;;;;;;-128.00;-1.00;-1.00;97795;295;1003525;-30
2023/04/24 10:10:25;;;;;;;7.30;4.00;;;;;;;-128.00;-1.00;-1.00;97707;295;1002793;-30
2023/04/24 10:12:51;;;;;;;8.60;2.60;;;;;;;-128.00;-1.00;-1.00;95677;285;1282667;-35
2023/04/24 10:15:20;;;;;;;3.70;2.70;;;;;;;-128.00;-1.00;-1.00;97843;295;1003895;-34
2023/04/24 10:17:52;;;;;;;4.10;2.70;;;;;;;-128.00;-1.00;-1.00;97186;295;1003368;-30
2023/04/24 10:20:30;;;;;;;6.90;2.60;;;;;;;-128.00;-1.00;-1.00;97529;297;1002843;-30
2023/04/24 10:22:57;;;;;;;2.80;2.40;;;;;;;-128.00;-1.00;-1.00;97481;295;1515797;-39
2023/04/24 10:25:25;;;;;;;3.90;2.10;;;;;;;-128.00;-1.00;-1.00;97620;295;1002656;-35
2023/04/24 10:27:51;;;;;;;10.00;2.50;;;;;;;-128.00;-1.00;-1.00;54803;295;7354335;-31
2023/04/24 10:30:18;;;;;;;4.70;2.00;;;;;;;-128.00;-1.00;-1.00;80806;295;3003108;-31
2023/04/24 10:32:44;;;;;;;3.00;2.20;;;;;;;-128.00;-1.00;-1.00;93641;295;1869809;-31
2023/04/24 10:35:14;;;;;;;3.20;1.80;;;;;;;-128.00;-1.00;-1.00;95938;295;1043371;-31
2023/04/24 10:37:45;;;;;;;2.10;1.60;;;;;;;-128.00;-1.00;-1.00;92903;296;2096153;-35
2023/04/24 10:40:12;;;;;;;2.30;1.20;;;;;;;-128.00;-1.00;-1.00;95272;295;1803325;-30
2023/04/24 10:42:44;;;;;;;3.80;2.20;;;;;;;-128.00;-1.00;-1.00;87721;298;3002766;-31
2023/04/24 10:45:17;;;;;;;3.00;2.30;;;;;;;-128.00;-1.00;-1.00;96982;295;1112244;-35
2023/04/24 10:47:56;;;;;;;6.10;2.80;;;;;;;-128.00;-1.00;-1.00;46591;295;7504033;-30
2023/04/24 10:50:22;;;;;;;2.50;2.00;;;;;;;-128.00;-1.00;-1.00;18499;297;7505325;-31
2023/04/24 10:52:51;;;;;;;2.30;2.10;;;;;;;-128.00;-1.00;-1.00;18583;288;7504375;-36
2023/04/24 10:55:17;;;;;;;3.50;2.40;;;;;;;-128.00;-1.00;-1.00;18482;295;7504714;-31
2023/04/24 10:57:50;;;;;;;4.90;2.40;;;;;;;-128.00;-1.00;-1.00;21946;297;7504168;-35
2023/04/24 11:00:20;;;;;;;2.60;2.20;;;;;;;-128.00;-1.00;-1.00;20300;295;7504606;-35
2023/04/24 11:02:49;;;;;;;4.30;2.20;;;;;;;-128.00;-1.00;-1.00;18480;347;7504961;-32
2023/04/24 11:05:16;;;;;;;3.90;3.10;;;;;;;-128.00;-1.00;-1.00;18480;296;7504726;-36
2023/04/24 11:48:21;;;;;;;4.00;2.90;;;;;;;-98.68;8.34;19642.37;98208;295;1544264;-36
2023/04/24 11:50:47;;;;;;;2.60;2.00;;;;;;;-128.00;-1.00;-1.00;97465;298;1002979;-35
2023/04/24 11:53:13;;;;;;;2.90;1.90;;;;;;;-128.00;-1.00;-1.00;97831;295;1003484;-35
2023/04/24 11:55:38;;;;;;;2.70;2.30;;;;;;;-128.00;-1.00;-1.00;98090;295;1003976;-30
2023/04/24 11:58:05;;;;;;;3.30;2.70;;;;;;;-128.00;-1.00;-1.00;97988;295;1004789;-35
2023/04/24 12:00:34;;;;;;;3.90;2.60;;;;;;;-128.00;-1.00;-1.00;97874;295;1004298;-30
2023/04/24 12:03:11;;;;;;;2.90;2.60;;;;;;;-128.00;-1.00;-1.00;97935;295;1003045;-35
2023/04/24 12:05:38;;;;;;;3.80;2.80;;;;;;;-128.00;-1.00;-1.00;97904;295;1003490;-36
2023/04/24 12:08:04;;;;;;;3.30;1.40;;;;;;;-128.00;-1.00;-1.00;97984;295;1003474;-36
2023/04/24 12:10:31;;;;;;;3.10;2.10;;;;;;;-128.00;-1.00;-1.00;97791;295;1003199;-34
2023/04/24 12:12:58;;;;;;;7.00;2.10;;;;;;;-128.00;-1.00;-1.00;97981;295;1002836;-32
2023/04/24 12:15:24;;;;;;;2.60;0.90;;;;;;;-128.00;-1.00;-1.00;97846;295;1003564;-30
2023/04/24 12:17:53;;;;;;;1.90;1.70;;;;;;;-128.00;-1.00;-1.00;97850;295;1003038;-30
2023/04/24 12:20:24;;;;;;;10.80;6.00;;;;;;;-128.00;-1.00;-1.00;97991;295;1003623;-36
2023/04/24 12:22:54;;;;;;;3.80;2.80;;;;;;;-128.00;-1.00;-1.00;97802;295;1004481;-34
2023/04/24 12:25:27;;;;;;;3.30;2.00;;;;;;;-128.00;-1.00;-1.00;97946;295;1004002;-29
2023/04/24 12:27:54;;;;;;;;;;;;;;;-128.00;-1.00;-1.00;97958;295;1003793;-33
2023/04/24 12:30:19;;;;;;;2.30;1.90;;;;;;;-128.00;-1.00;-1.00;98056;295;1003731;-37
2023/04/24 12:32:47;;;;;;;2.40;1.70;;;;;;;-128.00;-1.00;-1.00;98024;295;1004518;-31
2023/04/24 12:35:13;;;;;;;2.40;1.10;;;;;;;-128.00;-1.00;-1.00;97947;295;1004050;-30
2023/04/24 12:37:39;;;;;;;2.20;1.90;;;;;;;-128.00;-1.00;-1.00;98015;295;1003650;-34
2023/04/24 12:40:08;;;;;;;3.20;2.20;;;;;;;-128.00;-1.00;-1.00;97775;284;1003666;-35
2023/04/24 12:42:34;;;;;;;2.60;2.20;;;;;;;-128.00;-1.00;-1.00;97960;295;1002908;-31
2023/04/24 12:45:03;;;;;;;3.70;2.20;;;;;;;-128.00;-1.00;-1.00;97824;295;1003369;-35
2023/04/24 12:47:30;;;;;;;1.90;1.70;;;;;;;-128.00;-1.00;-1.00;97988;295;1003275;-30
2023/04/24 12:49:56;;;;;;;6.00;2.50;;;;;;;-128.00;-1.00;-1.00;97928;295;1004527;-30